sensor_id;sensor_type;location;lat;lon;timestamp;P1;durP1;ratioP1;P2;durP2;ratioP2
51288;SDS011;37372;52.294;5.152;2022-12-20T00:02:23;8.10;;;3.65;;
51288;SDS011;37372;52.294;5.152;2022-12-20T00:04:48;6.25;;;3.15;;
51288;SDS011;37372;52.294;5.152;2022-12-20T00:07:14;5.75;;;3.42;;
51288;SDS011;37372;52.294;5.152;2022-12-20T00:09:39;8.52;;;3.53;;
51288;SDS011;37372;52.294;5.152;2022-12-20T00:12:04;9.95;;;3.47;;
51288;SDS011;37372;52.294;5.152;2022-12-20T00:14:30;7.55;;;3.20;;
51288;SDS011;37372;52.294;5.152;2022-12-20T00:16:56;6.28;;;3.15;;
51288;SDS011;37372;52.294;5.152;2022-12-20T00:19:21;8.93;;;3.78;;
51288;SDS011;37372;52.294;5.152;2022-12-20T00:21:46;7.47;;;3.63;;
51288;SDS011;37372;52.294;5.152;2022-12-20T00:24:12;8.98;;;3.25;;
51288;SDS011;37372;52.294;5.152;2022-12-20T00:26:37;7.72;;;3.00;;
51288;SDS011;37372;52.294;5.152;2022-12-20T00:29:03;6.38;;;3.03;;
51288;SDS011;37372;52.294;5.152;2022-12-20T00:31:29;6.25;;;2.80;;
51288;SDS011;37372;52.294;5.152;2022-12-20T00:33:56;6.93;;;4.03;;
51288;SDS011;37372;52.294;5.152;2022-12-20T00:36:23;4.75;;;2.88;;
51288;SDS011;37372;52.294;5.152;2022-12-20T00:38:51;6.47;;;3.13;;
51288;SDS011;37372;52.294;5.152;2022-12-20T00:41:19;8.35;;;2.72;;
51288;SDS011;37372;52.294;5.152;2022-12-20T00:43:46;9.50;;;2.88;;
51288;SDS011;37372;52.294;5.152;2022-12-20T00:46:13;5.15;;;2.88;;
51288;SDS011;37372;52.294;5.152;2022-12-20T00:48:39;7.22;;;3.25;;
51288;SDS011;37372;52.294;5.152;2022-12-20T00:51:06;10.88;;;3.85;;
51288;SDS011;37372;52.294;5.152;2022-12-20T00:53:34;7.88;;;3.38;;
51288;SDS011;37372;52.294;5.152;2022-12-20T00:56:00;5.93;;;2.78;;
51288;SDS011;37372;52.294;5.152;2022-12-20T00:58:27;6.78;;;3.08;;
51288;SDS011;37372;52.294;5.152;2022-12-20T01:00:53;8.02;;;2.70;;
51288;SDS011;37372;52.294;5.152;2022-12-20T01:03:18;6.68;;;2.85;;
51288;SDS011;37372;52.294;5.152;2022-12-20T01:05:54;6.57;;;2.95;;
51288;SDS011;37372;52.294;5.152;2022-12-20T01:08:21;6.47;;;2.70;;
51288;SDS011;37372;52.294;5.152;2022-12-20T01:16:11;6.97;;;2.53;;
51288;SDS011;37372;52.294;5.152;2022-12-20T01:18:42;6.78;;;2.72;;
51288;SDS011;37372;52.294;5.152;2022-12-20T01:21:09;6.30;;;2.88;;
51288;SDS011;37372;52.294;5.152;2022-12-20T01:23:36;6.18;;;3.13;;
51288;SDS011;37372;52.294;5.152;2022-12-20T01:26:03;7.00;;;3.13;;
51288;SDS011;37372;52.294;5.152;2022-12-20T01:28:30;5.78;;;3.10;;
51288;SDS011;37372;52.294;5.152;2022-12-20T01:30:56;5.80;;;3.28;;
51288;SDS011;37372;52.294;5.152;2022-12-20T01:33:21;6.05;;;3.10;;
51288;SDS011;37372;52.294;5.152;2022-12-20T01:36:04;6.38;;;2.47;;
51288;SDS011;37372;52.294;5.152;2022-12-20T01:38:33;4.95;;;3.03;;
51288;SDS011;37372;52.294;5.152;2022-12-20T01:40:59;5.55;;;2.85;;
51288;SDS011;37372;52.294;5.152;2022-12-20T01:43:25;7.07;;;3.30;;
51288;SDS011;37372;52.294;5.152;2022-12-20T01:46:09;5.57;;;3.28;;
51288;SDS011;37372;52.294;5.152;2022-12-20T01:48:35;7.38;;;3.50;;
51288;SDS011;37372;52.294;5.152;2022-12-20T01:51:01;8.77;;;3.38;;
51288;SDS011;37372;52.294;5.152;2022-12-20T01:53:27;6.32;;;3.33;;
51288;SDS011;37372;52.294;5.152;2022-12-20T01:55:52;7.53;;;3.92;;
51288;SDS011;37372;52.294;5.152;2022-12-20T01:58:18;7.32;;;3.33;;
51288;SDS011;37372;52.294;5.152;2022-12-20T02:00:45;5.63;;;2.92;;
51288;SDS011;37372;52.294;5.152;2022-12-20T02:03:11;7.13;;;3.00;;
51288;SDS011;37372;52.294;5.152;2022-12-20T02:05:39;7.55;;;3.38;;
51288;SDS011;37372;52.294;5.152;2022-12-20T02:08:07;5.15;;;2.83;;
51288;SDS011;37372;52.294;5.152;2022-12-20T02:13:33;6.90;;;3.72;;
51288;SDS011;37372;52.294;5.152;2022-12-20T02:16:06;5.47;;;3.03;;
51288;SDS011;37372;52.294;5.152;2022-12-20T02:29:34;6.93;;;3.17;;
51288;SDS011;37372;52.294;5.152;2022-12-20T02:34:40;6.82;;;4.05;;
51288;SDS011;37372;52.294;5.152;2022-12-20T02:37:07;6.20;;;3.13;;
51288;SDS011;37372;52.294;5.152;2022-12-20T02:39:33;6.00;;;3.10;;
51288;SDS011;37372;52.294;5.152;2022-12-20T02:42:05;8.35;;;3.63;;
51288;SDS011;37372;52.294;5.152;2022-12-20T02:44:34;6.63;;;3.47;;
51288;SDS011;37372;52.294;5.152;2022-12-20T02:47:29;10.98;;;3.85;;
51288;SDS011;37372;52.294;5.152;2022-12-20T02:50:01;9.48;;;3.50;;
51288;SDS011;37372;52.294;5.152;2022-12-20T02:52:28;10.70;;;3.45;;
51288;SDS011;37372;52.294;5.152;2022-12-20T02:54:56;5.13;;;3.35;;
51288;SDS011;37372;52.294;5.152;2022-12-20T03:00:21;6.72;;;2.92;;
51288;SDS011;37372;52.294;5.152;2022-12-20T03:02:47;7.20;;;3.85;;
51288;SDS011;37372;52.294;5.152;2022-12-20T03:05:34;5.03;;;3.10;;
51288;SDS011;37372;52.294;5.152;2022-12-20T03:08:07;6.25;;;3.58;;
51288;SDS011;37372;52.294;5.152;2022-12-20T03:10:32;8.32;;;3.00;;
51288;SDS011;37372;52.294;5.152;2022-12-20T03:12:58;5.82;;;3.13;;
51288;SDS011;37372;52.294;5.152;2022-12-20T03:15:23;7.13;;;3.55;;
51288;SDS011;37372;52.294;5.152;2022-12-20T03:17:48;6.15;;;3.22;;
51288;SDS011;37372;52.294;5.152;2022-12-20T03:20:14;6.45;;;3.17;;
51288;SDS011;37372;52.294;5.152;2022-12-20T03:22:39;7.85;;;2.90;;
51288;SDS011;37372;52.294;5.152;2022-12-20T03:25:05;7.38;;;3.33;;
51288;SDS011;37372;52.294;5.152;2022-12-20T03:27:31;5.72;;;3.28;;
51288;SDS011;37372;52.294;5.152;2022-12-20T03:29:56;8.68;;;3.28;;
51288;SDS011;37372;52.294;5.152;2022-12-20T03:32:21;7.70;;;3.20;;
51288;SDS011;37372;52.294;5.152;2022-12-20T03:34:47;10.80;;;3.28;;
51288;SDS011;37372;52.294;5.152;2022-12-20T03:37:12;5.68;;;3.08;;
51288;SDS011;37372;52.294;5.152;2022-12-20T03:39:38;4.95;;;2.72;;
51288;SDS011;37372;52.294;5.152;2022-12-20T03:42:03;7.22;;;2.83;;
51288;SDS011;37372;52.294;5.152;2022-12-20T03:44:29;5.47;;;3.05;;
51288;SDS011;37372;52.294;5.152;2022-12-20T03:46:54;6.50;;;3.15;;
51288;SDS011;37372;52.294;5.152;2022-12-20T03:49:20;6.70;;;3.47;;
51288;SDS011;37372;52.294;5.152;2022-12-20T03:51:45;4.63;;;2.70;;
51288;SDS011;37372;52.294;5.152;2022-12-20T03:54:11;8.55;;;3.28;;
51288;SDS011;37372;52.294;5.152;2022-12-20T03:56:36;5.35;;;2.55;;
51288;SDS011;37372;52.294;5.152;2022-12-20T03:59:01;8.00;;;3.00;;
51288;SDS011;37372;52.294;5.152;2022-12-20T04:01:27;6.57;;;2.90;;
51288;SDS011;37372;52.294;5.152;2022-12-20T04:03:53;6.25;;;2.47;;
51288;SDS011;37372;52.294;5.152;2022-12-20T04:06:19;7.00;;;2.65;;
51288;SDS011;37372;52.294;5.152;2022-12-20T04:08:46;5.10;;;2.38;;
51288;SDS011;37372;52.294;5.152;2022-12-20T04:11:11;8.95;;;3.30;;
51288;SDS011;37372;52.294;5.152;2022-12-20T04:13:40;5.40;;;3.13;;
51288;SDS011;37372;52.294;5.152;2022-12-20T04:16:06;4.95;;;2.53;;
51288;SDS011;37372;52.294;5.152;2022-12-20T04:18:31;8.57;;;2.95;;
51288;SDS011;37372;52.294;5.152;2022-12-20T04:20:58;6.82;;;3.00;;
51288;SDS011;37372;52.294;5.152;2022-12-20T04:23:24;6.57;;;3.05;;
51288;SDS011;37372;52.294;5.152;2022-12-20T04:25:50;5.10;;;2.90;;
51288;SDS011;37372;52.294;5.152;2022-12-20T04:28:16;4.75;;;2.55;;
51288;SDS011;37372;52.294;5.152;2022-12-20T04:30:41;5.65;;;2.90;;
51288;SDS011;37372;52.294;5.152;2022-12-20T04:33:07;4.88;;;2.85;;
51288;SDS011;37372;52.294;5.152;2022-12-20T04:35:32;6.35;;;3.13;;
51288;SDS011;37372;52.294;5.152;2022-12-20T04:37:58;8.63;;;2.85;;
51288;SDS011;37372;52.294;5.152;2022-12-20T04:40:23;6.30;;;2.70;;
51288;SDS011;37372;52.294;5.152;2022-12-20T04:42:49;7.60;;;2.75;;
51288;SDS011;37372;52.294;5.152;2022-12-20T04:45:14;6.72;;;2.70;;
51288;SDS011;37372;52.294;5.152;2022-12-20T04:47:40;10.40;;;3.75;;
51288;SDS011;37372;52.294;5.152;2022-12-20T04:50:05;7.00;;;2.88;;
51288;SDS011;37372;52.294;5.152;2022-12-20T04:52:31;7.55;;;2.90;;
51288;SDS011;37372;52.294;5.152;2022-12-20T04:55:15;7.68;;;3.53;;
51288;SDS011;37372;52.294;5.152;2022-12-20T04:57:41;7.07;;;2.95;;
51288;SDS011;37372;52.294;5.152;2022-12-20T05:00:07;6.93;;;3.55;;
51288;SDS011;37372;52.294;5.152;2022-12-20T05:02:32;7.20;;;2.72;;
51288;SDS011;37372;52.294;5.152;2022-12-20T05:04:58;6.38;;;3.08;;
51288;SDS011;37372;52.294;5.152;2022-12-20T05:07:23;8.57;;;3.25;;
51288;SDS011;37372;52.294;5.152;2022-12-20T05:09:49;5.78;;;3.30;;
51288;SDS011;37372;52.294;5.152;2022-12-20T05:12:14;6.90;;;3.08;;
51288;SDS011;37372;52.294;5.152;2022-12-20T05:14:39;6.85;;;3.17;;
51288;SDS011;37372;52.294;5.152;2022-12-20T05:17:05;7.22;;;4.22;;
51288;SDS011;37372;52.294;5.152;2022-12-20T05:19:30;9.90;;;4.10;;
51288;SDS011;37372;52.294;5.152;2022-12-20T05:21:55;8.82;;;3.88;;
51288;SDS011;37372;52.294;5.152;2022-12-20T05:24:39;7.38;;;3.95;;
51288;SDS011;37372;52.294;5.152;2022-12-20T05:27:23;6.05;;;3.50;;
51288;SDS011;37372;52.294;5.152;2022-12-20T05:29:49;8.63;;;4.38;;
51288;SDS011;37372;52.294;5.152;2022-12-20T05:32:15;8.50;;;4.50;;
51288;SDS011;37372;52.294;5.152;2022-12-20T05:34:40;7.35;;;4.10;;
51288;SDS011;37372;52.294;5.152;2022-12-20T05:37:07;7.25;;;3.80;;
51288;SDS011;37372;52.294;5.152;2022-12-20T05:39:32;8.35;;;4.30;;
51288;SDS011;37372;52.294;5.152;2022-12-20T05:41:57;7.15;;;3.85;;
51288;SDS011;37372;52.294;5.152;2022-12-20T05:44:23;8.40;;;4.00;;
51288;SDS011;37372;52.294;5.152;2022-12-20T05:46:48;9.00;;;4.13;;
51288;SDS011;37372;52.294;5.152;2022-12-20T05:49:14;7.78;;;3.65;;
51288;SDS011;37372;52.294;5.152;2022-12-20T05:51:42;13.60;;;4.57;;
51288;SDS011;37372;52.294;5.152;2022-12-20T05:54:07;6.90;;;4.25;;
51288;SDS011;37372;52.294;5.152;2022-12-20T05:56:33;9.32;;;4.00;;
51288;SDS011;37372;52.294;5.152;2022-12-20T05:58:58;6.07;;;3.42;;
51288;SDS011;37372;52.294;5.152;2022-12-20T06:01:24;6.65;;;3.25;;
51288;SDS011;37372;52.294;5.152;2022-12-20T06:03:49;6.60;;;3.83;;
51288;SDS011;37372;52.294;5.152;2022-12-20T06:06:15;7.22;;;3.30;;
51288;SDS011;37372;52.294;5.152;2022-12-20T06:08:41;7.57;;;3.58;;
51288;SDS011;37372;52.294;5.152;2022-12-20T06:11:06;10.30;;;3.80;;
51288;SDS011;37372;52.294;5.152;2022-12-20T06:13:32;7.07;;;3.83;;
51288;SDS011;37372;52.294;5.152;2022-12-20T06:15:57;6.35;;;3.70;;
51288;SDS011;37372;52.294;5.152;2022-12-20T06:18:24;6.25;;;3.42;;
51288;SDS011;37372;52.294;5.152;2022-12-20T06:20:50;10.27;;;3.33;;
51288;SDS011;37372;52.294;5.152;2022-12-20T06:23:19;9.15;;;3.75;;
51288;SDS011;37372;52.294;5.152;2022-12-20T06:25:45;7.50;;;3.22;;
51288;SDS011;37372;52.294;5.152;2022-12-20T06:28:10;7.32;;;3.92;;
51288;SDS011;37372;52.294;5.152;2022-12-20T06:30:36;7.22;;;3.38;;
51288;SDS011;37372;52.294;5.152;2022-12-20T06:33:01;8.73;;;4.00;;
51288;SDS011;37372;52.294;5.152;2022-12-20T06:35:28;8.30;;;3.20;;
51288;SDS011;37372;52.294;5.152;2022-12-20T06:37:54;6.47;;;3.22;;
51288;SDS011;37372;52.294;5.152;2022-12-20T06:40:20;5.80;;;2.97;;
51288;SDS011;37372;52.294;5.152;2022-12-20T06:42:45;22.00;;;3.25;;
51288;SDS011;37372;52.294;5.152;2022-12-20T06:45:11;5.78;;;3.03;;
51288;SDS011;37372;52.294;5.152;2022-12-20T06:47:36;4.95;;;2.70;;
51288;SDS011;37372;52.294;5.152;2022-12-20T06:50:02;7.18;;;2.92;;
51288;SDS011;37372;52.294;5.152;2022-12-20T06:52:29;5.55;;;2.80;;
51288;SDS011;37372;52.294;5.152;2022-12-20T06:54:54;4.80;;;2.70;;
51288;SDS011;37372;52.294;5.152;2022-12-20T06:57:20;4.13;;;2.28;;
51288;SDS011;37372;52.294;5.152;2022-12-20T06:59:45;4.70;;;2.58;;
51288;SDS011;37372;52.294;5.152;2022-12-20T07:02:11;5.90;;;2.50;;
51288;SDS011;37372;52.294;5.152;2022-12-20T07:04:36;7.75;;;2.90;;
51288;SDS011;37372;52.294;5.152;2022-12-20T07:07:02;4.50;;;2.35;;
51288;SDS011;37372;52.294;5.152;2022-12-20T07:09:28;4.95;;;2.83;;
51288;SDS011;37372;52.294;5.152;2022-12-20T07:11:54;4.38;;;2.38;;
51288;SDS011;37372;52.294;5.152;2022-12-20T07:14:21;7.03;;;2.67;;
51288;SDS011;37372;52.294;5.152;2022-12-20T07:16:47;6.38;;;2.38;;
51288;SDS011;37372;52.294;5.152;2022-12-20T07:19:12;4.10;;;2.25;;
51288;SDS011;37372;52.294;5.152;2022-12-20T07:21:39;5.18;;;2.30;;
51288;SDS011;37372;52.294;5.152;2022-12-20T07:24:05;4.20;;;1.95;;
51288;SDS011;37372;52.294;5.152;2022-12-20T07:26:31;5.45;;;2.65;;
51288;SDS011;37372;52.294;5.152;2022-12-20T07:28:57;4.43;;;2.00;;
51288;SDS011;37372;52.294;5.152;2022-12-20T07:31:22;6.03;;;2.08;;
51288;SDS011;37372;52.294;5.152;2022-12-20T07:33:48;4.43;;;1.90;;
51288;SDS011;37372;52.294;5.152;2022-12-20T07:36:13;11.55;;;2.75;;
51288;SDS011;37372;52.294;5.152;2022-12-20T07:38:42;6.60;;;2.38;;
51288;SDS011;37372;52.294;5.152;2022-12-20T07:41:08;5.95;;;2.30;;
51288;SDS011;37372;52.294;5.152;2022-12-20T07:43:41;8.23;;;2.17;;
51288;SDS011;37372;52.294;5.152;2022-12-20T07:46:08;8.88;;;2.00;;
51288;SDS011;37372;52.294;5.152;2022-12-20T07:48:36;5.15;;;2.80;;
51288;SDS011;37372;52.294;5.152;2022-12-20T07:51:05;11.57;;;2.35;;
51288;SDS011;37372;52.294;5.152;2022-12-20T07:53:34;6.03;;;2.40;;
51288;SDS011;37372;52.294;5.152;2022-12-20T07:56:06;9.90;;;2.67;;
51288;SDS011;37372;52.294;5.152;2022-12-20T07:58:35;6.40;;;3.25;;
51288;SDS011;37372;52.294;5.152;2022-12-20T08:01:03;6.45;;;2.20;;
51288;SDS011;37372;52.294;5.152;2022-12-20T08:03:34;3.35;;;1.73;;
51288;SDS011;37372;52.294;5.152;2022-12-20T08:06:02;5.55;;;2.50;;
51288;SDS011;37372;52.294;5.152;2022-12-20T08:08:31;5.53;;;2.92;;
51288;SDS011;37372;52.294;5.152;2022-12-20T08:11:00;4.95;;;2.15;;
51288;SDS011;37372;52.294;5.152;2022-12-20T08:13:27;8.65;;;2.30;;
51288;SDS011;37372;52.294;5.152;2022-12-20T08:15:53;5.45;;;2.20;;
51288;SDS011;37372;52.294;5.152;2022-12-20T08:18:18;5.68;;;2.10;;
51288;SDS011;37372;52.294;5.152;2022-12-20T08:20:44;5.97;;;2.78;;
51288;SDS011;37372;52.294;5.152;2022-12-20T08:23:09;5.32;;;2.15;;
51288;SDS011;37372;52.294;5.152;2022-12-20T08:25:35;7.45;;;2.80;;
51288;SDS011;37372;52.294;5.152;2022-12-20T08:28:00;6.00;;;3.08;;
51288;SDS011;37372;52.294;5.152;2022-12-20T08:30:28;7.47;;;2.65;;
51288;SDS011;37372;52.294;5.152;2022-12-20T08:32:54;5.00;;;2.47;;
51288;SDS011;37372;52.294;5.152;2022-12-20T08:35:20;8.10;;;2.65;;
51288;SDS011;37372;52.294;5.152;2022-12-20T08:37:46;5.47;;;2.47;;
51288;SDS011;37372;52.294;5.152;2022-12-20T08:40:12;6.55;;;3.03;;
51288;SDS011;37372;52.294;5.152;2022-12-20T08:42:38;5.25;;;2.67;;
51288;SDS011;37372;52.294;5.152;2022-12-20T08:45:04;4.38;;;2.95;;
51288;SDS011;37372;52.294;5.152;2022-12-20T08:47:30;4.97;;;2.55;;
51288;SDS011;37372;52.294;5.152;2022-12-20T08:49:56;5.97;;;3.05;;
51288;SDS011;37372;52.294;5.152;2022-12-20T08:52:21;6.60;;;2.78;;
51288;SDS011;37372;52.294;5.152;2022-12-20T08:54:46;5.45;;;2.20;;
51288;SDS011;37372;52.294;5.152;2022-12-20T08:57:12;4.53;;;2.67;;
51288;SDS011;37372;52.294;5.152;2022-12-20T08:59:37;9.27;;;3.72;;
51288;SDS011;37372;52.294;5.152;2022-12-20T09:02:03;6.18;;;2.80;;
51288;SDS011;37372;52.294;5.152;2022-12-20T09:04:29;6.40;;;2.85;;
51288;SDS011;37372;52.294;5.152;2022-12-20T09:06:54;7.78;;;2.78;;
51288;SDS011;37372;52.294;5.152;2022-12-20T09:09:20;4.63;;;2.55;;
51288;SDS011;37372;52.294;5.152;2022-12-20T09:11:45;7.88;;;3.33;;
51288;SDS011;37372;52.294;5.152;2022-12-20T09:14:10;8.18;;;3.05;;
51288;SDS011;37372;52.294;5.152;2022-12-20T09:16:36;6.70;;;2.60;;
51288;SDS011;37372;52.294;5.152;2022-12-20T09:19:01;6.38;;;2.38;;
51288;SDS011;37372;52.294;5.152;2022-12-20T09:21:28;6.93;;;2.90;;
51288;SDS011;37372;52.294;5.152;2022-12-20T09:23:54;6.57;;;3.03;;
51288;SDS011;37372;52.294;5.152;2022-12-20T09:26:21;5.53;;;2.47;;
51288;SDS011;37372;52.294;5.152;2022-12-20T09:28:47;7.53;;;3.42;;
51288;SDS011;37372;52.294;5.152;2022-12-20T09:31:15;5.88;;;2.60;;
51288;SDS011;37372;52.294;5.152;2022-12-20T09:33:42;14.07;;;3.08;;
51288;SDS011;37372;52.294;5.152;2022-12-20T09:36:12;6.57;;;3.00;;
51288;SDS011;37372;52.294;5.152;2022-12-20T09:38:39;5.50;;;2.95;;
51288;SDS011;37372;52.294;5.152;2022-12-20T09:41:06;4.75;;;2.65;;
51288;SDS011;37372;52.294;5.152;2022-12-20T09:43:33;11.25;;;2.85;;
51288;SDS011;37372;52.294;5.152;2022-12-20T09:46:00;6.95;;;2.95;;
51288;SDS011;37372;52.294;5.152;2022-12-20T09:48:34;6.60;;;2.75;;
51288;SDS011;37372;52.294;5.152;2022-12-20T09:51:06;8.65;;;3.42;;
51288;SDS011;37372;52.294;5.152;2022-12-20T09:59:18;7.22;;;3.13;;
51288;SDS011;37372;52.294;5.152;2022-12-20T10:01:45;9.38;;;3.20;;
51288;SDS011;37372;52.294;5.152;2022-12-20T10:04:22;9.20;;;3.55;;
51288;SDS011;37372;52.294;5.152;2022-12-20T10:06:56;6.82;;;3.38;;
51288;SDS011;37372;52.294;5.152;2022-12-20T10:09:33;8.00;;;3.17;;
51288;SDS011;37372;52.294;5.152;2022-12-20T10:14:49;6.18;;;3.17;;
51288;SDS011;37372;52.294;5.152;2022-12-20T10:22:59;7.68;;;3.35;;
51288;SDS011;37372;52.294;5.152;2022-12-20T10:25:53;7.80;;;4.53;;
51288;SDS011;37372;52.294;5.152;2022-12-20T10:28:24;7.13;;;3.65;;
51288;SDS011;37372;52.294;5.152;2022-12-20T10:30:53;8.27;;;3.10;;
51288;SDS011;37372;52.294;5.152;2022-12-20T10:33:20;10.88;;;3.60;;
51288;SDS011;37372;52.294;5.152;2022-12-20T10:35:46;7.53;;;3.80;;
51288;SDS011;37372;52.294;5.152;2022-12-20T10:38:14;5.50;;;3.42;;
51288;SDS011;37372;52.294;5.152;2022-12-20T10:40:43;7.93;;;3.70;;
51288;SDS011;37372;52.294;5.152;2022-12-20T10:43:23;7.50;;;3.65;;
51288;SDS011;37372;52.294;5.152;2022-12-20T10:46:05;11.30;;;3.78;;
51288;SDS011;37372;52.294;5.152;2022-12-20T10:48:38;7.57;;;4.20;;
51288;SDS011;37372;52.294;5.152;2022-12-20T10:53:35;9.48;;;4.78;;
51288;SDS011;37372;52.294;5.152;2022-12-20T10:56:21;11.18;;;5.15;;
51288;SDS011;37372;52.294;5.152;2022-12-20T11:01:19;8.98;;;4.30;;
51288;SDS011;37372;52.294;5.152;2022-12-20T11:04:00;8.65;;;4.07;;
51288;SDS011;37372;52.294;5.152;2022-12-20T11:14:33;7.10;;;3.50;;
51288;SDS011;37372;52.294;5.152;2022-12-20T11:17:03;6.43;;;4.18;;
51288;SDS011;37372;52.294;5.152;2022-12-20T11:19:50;7.47;;;4.22;;
51288;SDS011;37372;52.294;5.152;2022-12-20T11:36:48;7.18;;;4.55;;
51288;SDS011;37372;52.294;5.152;2022-12-20T11:53:21;10.63;;;5.28;;
51288;SDS011;37372;52.294;5.152;2022-12-20T11:55:52;7.22;;;5.10;;
51288;SDS011;37372;52.294;5.152;2022-12-20T12:01:06;8.15;;;5.95;;
51288;SDS011;37372;52.294;5.152;2022-12-20T12:03:38;9.60;;;6.25;;
51288;SDS011;37372;52.294;5.152;2022-12-20T12:11:31;9.70;;;6.40;;
51288;SDS011;37372;52.294;5.152;2022-12-20T12:14:03;10.23;;;7.05;;
51288;SDS011;37372;52.294;5.152;2022-12-20T12:16:34;13.48;;;6.85;;
51288;SDS011;37372;52.294;5.152;2022-12-20T12:19:04;13.50;;;7.60;;
51288;SDS011;37372;52.294;5.152;2022-12-20T12:21:36;11.98;;;7.95;;
51288;SDS011;37372;52.294;5.152;2022-12-20T12:24:27;10.67;;;7.40;;
51288;SDS011;37372;52.294;5.152;2022-12-20T12:27:02;10.30;;;8.07;;
51288;SDS011;37372;52.294;5.152;2022-12-20T12:29:28;13.70;;;7.60;;
51288;SDS011;37372;52.294;5.152;2022-12-20T12:31:56;13.23;;;8.65;;
51288;SDS011;37372;52.294;5.152;2022-12-20T12:34:31;12.13;;;8.32;;
51288;SDS011;37372;52.294;5.152;2022-12-20T12:44:52;12.45;;;8.82;;
51288;SDS011;37372;52.294;5.152;2022-12-20T12:47:38;16.60;;;9.07;;
51288;SDS011;37372;52.294;5.152;2022-12-20T12:50:30;12.23;;;9.27;;
51288;SDS011;37372;52.294;5.152;2022-12-20T12:53:07;13.82;;;8.68;;
51288;SDS011;37372;52.294;5.152;2022-12-20T12:58:14;14.25;;;8.52;;
51288;SDS011;37372;52.294;5.152;2022-12-20T13:00:53;10.57;;;8.57;;
51288;SDS011;37372;52.294;5.152;2022-12-20T13:09:08;12.13;;;9.13;;
51288;SDS011;37372;52.294;5.152;2022-12-20T13:11:59;13.45;;;9.00;;
51288;SDS011;37372;52.294;5.152;2022-12-20T13:14:47;15.95;;;8.45;;
51288;SDS011;37372;52.294;5.152;2022-12-20T13:19:50;15.73;;;9.35;;
51288;SDS011;37372;52.294;5.152;2022-12-20T13:22:21;12.05;;;10.07;;
51288;SDS011;37372;52.294;5.152;2022-12-20T13:25:02;16.75;;;9.50;;
51288;SDS011;37372;52.294;5.152;2022-12-20T13:27:48;12.15;;;10.02;;
51288;SDS011;37372;52.294;5.152;2022-12-20T13:41:01;17.60;;;10.57;;
51288;SDS011;37372;52.294;5.152;2022-12-20T13:43:27;10.57;;;8.63;;
51288;SDS011;37372;52.294;5.152;2022-12-20T13:46:05;14.60;;;10.32;;
51288;SDS011;37372;52.294;5.152;2022-12-20T13:51:10;12.82;;;10.20;;
51288;SDS011;37372;52.294;5.152;2022-12-20T13:53:57;15.55;;;11.05;;
51288;SDS011;37372;52.294;5.152;2022-12-20T13:58:52;18.35;;;10.48;;
51288;SDS011;37372;52.294;5.152;2022-12-20T14:01:22;15.43;;;10.70;;
51288;SDS011;37372;52.294;5.152;2022-12-20T14:03:49;14.10;;;10.70;;
51288;SDS011;37372;52.294;5.152;2022-12-20T14:06:17;13.85;;;10.73;;
51288;SDS011;37372;52.294;5.152;2022-12-20T14:08:45;14.02;;;10.95;;
51288;SDS011;37372;52.294;5.152;2022-12-20T14:13:49;13.05;;;10.77;;
51288;SDS011;37372;52.294;5.152;2022-12-20T14:16:20;13.27;;;9.85;;
51288;SDS011;37372;52.294;5.152;2022-12-20T14:18:59;12.40;;;9.98;;
51288;SDS011;37372;52.294;5.152;2022-12-20T14:21:27;13.85;;;10.13;;
51288;SDS011;37372;52.294;5.152;2022-12-20T14:23:54;12.20;;;9.63;;
51288;SDS011;37372;52.294;5.152;2022-12-20T14:26:26;13.32;;;10.07;;
51288;SDS011;37372;52.294;5.152;2022-12-20T14:28:57;14.80;;;10.63;;
51288;SDS011;37372;52.294;5.152;2022-12-20T14:31:26;11.88;;;9.60;;
51288;SDS011;37372;52.294;5.152;2022-12-20T14:36:38;16.92;;;12.98;;
51288;SDS011;37372;52.294;5.152;2022-12-20T14:39:25;14.95;;;12.15;;
51288;SDS011;37372;52.294;5.152;2022-12-20T14:44:37;17.73;;;12.98;;
51288;SDS011;37372;52.294;5.152;2022-12-20T14:49:37;16.95;;;12.85;;
51288;SDS011;37372;52.294;5.152;2022-12-20T14:52:25;19.55;;;14.02;;
51288;SDS011;37372;52.294;5.152;2022-12-20T14:55:05;16.52;;;13.45;;
51288;SDS011;37372;52.294;5.152;2022-12-20T14:57:41;17.48;;;14.13;;
51288;SDS011;37372;52.294;5.152;2022-12-20T15:05:06;17.85;;;13.15;;
51288;SDS011;37372;52.294;5.152;2022-12-20T15:07:52;18.00;;;14.32;;
51288;SDS011;37372;52.294;5.152;2022-12-20T15:10:17;17.75;;;14.98;;
51288;SDS011;37372;52.294;5.152;2022-12-20T15:12:43;19.33;;;14.80;;
51288;SDS011;37372;52.294;5.152;2022-12-20T15:15:13;18.33;;;14.63;;
51288;SDS011;37372;52.294;5.152;2022-12-20T15:17:40;19.30;;;14.30;;
51288;SDS011;37372;52.294;5.152;2022-12-20T15:20:10;16.70;;;14.38;;
51288;SDS011;37372;52.294;5.152;2022-12-20T15:22:36;16.30;;;13.95;;
51288;SDS011;37372;52.294;5.152;2022-12-20T15:25:07;19.70;;;14.73;;
51288;SDS011;37372;52.294;5.152;2022-12-20T15:27:40;19.60;;;14.70;;
51288;SDS011;37372;52.294;5.152;2022-12-20T15:30:10;18.30;;;15.77;;
51288;SDS011;37372;52.294;5.152;2022-12-20T15:32:37;19.23;;;14.18;;
51288;SDS011;37372;52.294;5.152;2022-12-20T15:35:04;21.08;;;16.08;;
51288;SDS011;37372;52.294;5.152;2022-12-20T15:37:30;20.33;;;16.35;;
51288;SDS011;37372;52.294;5.152;2022-12-20T15:39:55;21.00;;;14.88;;
51288;SDS011;37372;52.294;5.152;2022-12-20T15:42:21;19.92;;;16.83;;
51288;SDS011;37372;52.294;5.152;2022-12-20T15:44:48;20.52;;;16.02;;
51288;SDS011;37372;52.294;5.152;2022-12-20T15:47:14;20.38;;;16.55;;
51288;SDS011;37372;52.294;5.152;2022-12-20T15:49:40;23.63;;;17.08;;
51288;SDS011;37372;52.294;5.152;2022-12-20T15:52:08;21.60;;;16.58;;
51288;SDS011;37372;52.294;5.152;2022-12-20T15:54:43;22.15;;;17.00;;
51288;SDS011;37372;52.294;5.152;2022-12-20T15:57:09;22.08;;;16.55;;
51288;SDS011;37372;52.294;5.152;2022-12-20T15:59:36;20.60;;;16.33;;
51288;SDS011;37372;52.294;5.152;2022-12-20T16:02:02;21.35;;;16.60;;
51288;SDS011;37372;52.294;5.152;2022-12-20T16:04:28;23.02;;;17.17;;
51288;SDS011;37372;52.294;5.152;2022-12-20T16:06:53;27.40;;;17.70;;
51288;SDS011;37372;52.294;5.152;2022-12-20T16:09:19;22.67;;;17.50;;
51288;SDS011;37372;52.294;5.152;2022-12-20T16:11:45;23.33;;;16.45;;
51288;SDS011;37372;52.294;5.152;2022-12-20T16:14:14;23.05;;;18.00;;
51288;SDS011;37372;52.294;5.152;2022-12-20T16:16:41;20.55;;;16.90;;
51288;SDS011;37372;52.294;5.152;2022-12-20T16:19:08;22.33;;;16.98;;
51288;SDS011;37372;52.294;5.152;2022-12-20T16:21:35;23.58;;;17.92;;
51288;SDS011;37372;52.294;5.152;2022-12-20T16:24:10;22.83;;;17.10;;
51288;SDS011;37372;52.294;5.152;2022-12-20T16:26:37;25.45;;;18.92;;
51288;SDS011;37372;52.294;5.152;2022-12-20T16:29:02;24.10;;;18.60;;
51288;SDS011;37372;52.294;5.152;2022-12-20T16:31:28;22.35;;;17.52;;
51288;SDS011;37372;52.294;5.152;2022-12-20T16:33:55;23.50;;;17.95;;
51288;SDS011;37372;52.294;5.152;2022-12-20T16:36:22;25.38;;;19.45;;
51288;SDS011;37372;52.294;5.152;2022-12-20T16:38:48;25.75;;;19.80;;
51288;SDS011;37372;52.294;5.152;2022-12-20T16:41:18;23.63;;;19.02;;
51288;SDS011;37372;52.294;5.152;2022-12-20T16:43:52;23.33;;;18.17;;
51288;SDS011;37372;52.294;5.152;2022-12-20T16:46:20;26.05;;;18.95;;
51288;SDS011;37372;52.294;5.152;2022-12-20T16:48:47;23.55;;;18.35;;
51288;SDS011;37372;52.294;5.152;2022-12-20T16:53:39;26.23;;;18.85;;
51288;SDS011;37372;52.294;5.152;2022-12-20T16:56:04;22.58;;;18.15;;
51288;SDS011;37372;52.294;5.152;2022-12-20T16:58:30;24.15;;;19.00;;
51288;SDS011;37372;52.294;5.152;2022-12-20T17:00:56;28.95;;;20.92;;
51288;SDS011;37372;52.294;5.152;2022-12-20T17:03:21;26.08;;;18.70;;
51288;SDS011;37372;52.294;5.152;2022-12-20T17:05:46;24.98;;;18.58;;
51288;SDS011;37372;52.294;5.152;2022-12-20T17:08:12;25.63;;;18.13;;
51288;SDS011;37372;52.294;5.152;2022-12-20T17:10:38;25.60;;;19.15;;